Terminal Aerodrome Forecast
Issued by NWS

Home | Current Version | Previous Version | Text Only | Print | Product List | Glossary On
Versions: 1 2 3 4 5 6 7 8 9 10 11 12 13 14 15 16 17 18 19 20
000
FTUS44 KTSA 030500
TAFBVO
TAF
KBVO 030520Z 0306/0406 VRB05KT P6SM SCT100
      TEMPO 0306/0310 3SM TSRA BKN040CB
     FM031500 19007KT P6SM SCT250
     FM031800 18012KT P6SM SCT250
     FM040000 16005KT P6SM FEW250=

USA.gov is the U.S. government's official web portal to all federal, state and local government web resources and services.